Time;durP1;ratioP1;P1;durP2;ratioP2;P2;SDS_P1;SDS_P2;PMS_P1;PMS_P2;Temp;Humidity;BMP_temperature;BMP_pressure;BME280_temperature;BME280_humidity;BME280_pressure;Samples;Min_cycle;Max_cycle;Signal;HPM_P1;HPM_P2
2023/10/05 00:00:27;;;;;;;1.65;0.45;;;20.10;58.70;;;;;;5013021;28;20221;-83
2023/10/05 00:02:48;;;;;;;1.13;0.40;;;19.90;58.00;;;;;;5013151;28;20230;-83
2023/10/05 00:05:22;;;;;;;2.25;0.40;;;20.00;57.80;;;;;;5012706;28;20218;-82
2023/10/05 00:07:53;;;;;;;2.08;0.47;;;19.90;57.60;;;;;;5013123;28;20201;-81
2023/10/05 00:10:24;;;;;;;2.20;0.30;;;20.00;58.10;;;;;;5012482;28;20230;-82
2023/10/05 00:12:58;;;;;;;1.00;0.40;;;20.10;56.90;;;;;;5023077;28;20427;-82
2023/10/05 00:15:31;;;;;;;1.10;0.20;;;20.10;58.30;;;;;;5032620;28;20197;-82
2023/10/05 00:18:02;;;;;;;0.65;0.30;;;20.10;56.10;;;;;;5032310;28;20212;-83
2023/10/05 00:20:38;;;;;;;0.80;0.22;;;20.20;56.10;;;;;;5032392;28;20284;-83
2023/10/05 00:23:11;;;;;;;1.02;0.30;;;20.20;56.10;;;;;;5032713;28;20258;-82
2023/10/05 00:25:42;;;;;;;0.40;0.30;;;20.40;57.00;;;;;;5032505;28;20205;-83
2023/10/05 00:28:15;;;;;;;3.45;0.50;;;20.70;55.90;;;;;;5031325;28;20584;-83
2023/10/05 00:30:46;;;;;;;0.70;0.50;;;20.80;53.50;;;;;;5050881;28;20235;-82
2023/10/05 00:33:17;;;;;;;2.20;0.80;;;20.70;50.50;;;;;;5052241;28;20204;-83
2023/10/05 00:35:50;;;;;;;0.68;0.43;;;20.60;51.30;;;;;;5051980;28;20284;-82
2023/10/05 00:38:23;;;;;;;1.17;0.40;;;20.80;52.70;;;;;;5063727;28;20190;-83
2023/10/05 00:40:57;;;;;;;1.48;0.40;;;21.10;52.70;;;;;;5056627;28;20235;-83
2023/10/05 00:43:29;;;;;;;1.38;0.40;;;21.10;50.10;;;;;;5043646;28;20242;-82
2023/10/05 00:46:00;;;;;;;2.67;0.40;;;21.00;49.50;;;;;;5035237;28;20196;-83
2023/10/05 00:48:35;;;;;;;0.30;0.30;;;21.10;52.10;;;;;;5052037;28;20197;-83
2023/10/05 00:51:12;;;;;;;1.50;0.38;;;21.10;48.20;;;;;;5051380;28;20315;-83
2023/10/05 00:53:46;;;;;;;0.70;0.22;;;21.00;49.70;;;;;;5051532;28;20240;-82
2023/10/05 00:56:21;;;;;;;1.13;0.55;;;21.30;50.00;;;;;;5052125;28;20196;-84
2023/10/05 00:58:55;;;;;;;1.23;0.63;;;21.30;48.10;;;;;;5051461;28;20742;-83
2023/10/05 01:01:32;;;;;;;0.80;0.50;;;21.30;46.40;;;;;;5038311;28;20200;-83
2023/10/05 01:04:20;;;;;;;1.10;0.50;;;21.20;46.30;;;;;;5038302;28;20237;-82
2023/10/05 01:07:06;;;;;;;0.80;0.30;;;21.40;46.10;;;;;;5031998;28;20201;-82
2023/10/05 01:09:56;;;;;;;0.80;0.38;;;21.40;46.40;;;;;;5035579;28;20221;-84
2023/10/05 01:12:36;;;;;;;0.80;0.40;;;21.40;46.20;;;;;;5039075;28;20224;-87
2023/10/05 01:15:08;;;;;;;1.70;0.40;;;21.50;47.50;;;;;;5021419;28;20308;-84
2023/10/05 01:17:39;;;;;;;1.65;0.40;;;21.60;46.80;;;;;;5019094;28;20252;-82
2023/10/05 01:20:13;;;;;;;0.73;0.30;;;21.60;45.60;;;;;;5021435;28;20204;-82
2023/10/05 01:22:45;;;;;;;3.92;0.40;;;21.70;45.60;;;;;;5023326;28;20209;-82
2023/10/05 01:25:18;;;;;;;1.52;0.40;;;22.00;46.40;;;;;;5023975;28;20201;-83
2023/10/05 01:27:50;;;;;;;0.70;0.30;;;22.10;43.40;;;;;;5021732;28;20201;-83
2023/10/05 01:30:21;;;;;;;0.98;0.30;;;22.20;45.20;;;;;;5011521;28;20218;-82
2023/10/05 01:32:54;;;;;;;2.45;0.50;;;22.20;41.90;;;;;;5022734;28;20320;-83
2023/10/05 01:35:25;;;;;;;0.85;0.52;;;22.20;43.30;;;;;;5030894;28;20280;-82
2023/10/05 01:37:59;;;;;;;2.78;1.35;;;22.20;42.10;;;;;;5025522;28;20268;-83
2023/10/05 01:40:36;;;;;;;1.42;0.40;;;22.00;40.70;;;;;;5034753;28;20197;-83
2023/10/05 01:43:07;;;;;;;2.33;0.60;;;22.10;42.30;;;;;;5025798;28;20280;-83
2023/10/05 01:45:43;;;;;;;1.38;0.43;;;22.30;37.10;;;;;;5028845;28;20229;-82
2023/10/05 01:48:18;;;;;;;1.10;0.45;;;22.30;36.20;;;;;;5019585;28;20197;-82
2023/10/05 01:50:50;;;;;;;0.75;0.50;;;22.30;34.30;;;;;;5019486;28;20252;-83
2023/10/05 01:53:21;;;;;;;1.75;0.30;;;22.20;35.30;;;;;;5024986;28;20198;-82
2023/10/05 01:55:54;;;;;;;1.60;0.52;;;22.30;35.90;;;;;;5031792;28;20209;-82
2023/10/05 01:58:26;;;;;;;1.13;0.40;;;22.50;36.00;;;;;;5031146;28;20202;-82
2023/10/05 02:00:58;;;;;;;1.33;0.60;;;22.40;35.80;;;;;;5029623;28;20221;-82
2023/10/05 02:03:29;;;;;;;1.17;0.50;;;22.40;36.20;;;;;;5024417;28;20535;-82
2023/10/05 02:06:05;;;;;;;1.63;0.30;;;22.40;36.20;;;;;;5016184;28;20697;-83
2023/10/05 02:08:37;;;;;;;2.80;0.45;;;22.50;36.90;;;;;;5026533;28;20193;-82
2023/10/05 02:11:10;;;;;;;4.57;0.43;;;22.70;36.90;;;;;;5029335;28;20232;-82
2023/10/05 02:13:41;;;;;;;1.63;0.45;;;22.70;36.40;;;;;;5034037;28;20585;-81
2023/10/05 02:16:18;;;;;;;1.25;0.50;;;22.80;38.40;;;;;;5035474;28;20203;-82
2023/10/05 02:18:49;;;;;;;0.70;0.45;;;22.80;37.10;;;;;;5020012;28;20198;-81
2023/10/05 02:21:28;;;;;;;0.35;0.30;;;23.10;37.90;;;;;;5029234;28;20224;-81
2023/10/05 02:24:10;;;;;;;0.52;0.30;;;23.20;36.50;;;;;;5014605;28;20237;-82
2023/10/05 02:27:05;;;;;;;1.23;0.40;;;23.30;36.10;;;;;;5023935;28;20201;-82
2023/10/05 02:29:39;;;;;;;1.65;0.50;;;23.20;34.70;;;;;;5026483;28;20220;-82
2023/10/05 02:32:14;;;;;;;1.30;0.47;;;23.00;36.00;;;;;;5015250;28;20279;-82
2023/10/05 02:34:59;;;;;;;1.85;0.63;;;23.00;36.40;;;;;;5016126;28;20201;-82
2023/10/05 02:37:32;;;;;;;1.63;0.80;;;23.10;36.60;;;;;;5034732;28;20235;-82
2023/10/05 02:40:08;;;;;;;0.65;0.40;;;23.40;36.20;;;;;;5028534;28;20205;-85
2023/10/05 02:42:43;;;;;;;1.90;0.30;;;23.70;37.70;;;;;;5028281;28;20197;-89
2023/10/05 02:45:17;;;;;;;0.95;0.50;;;23.70;35.10;;;;;;5039674;28;20211;-87
2023/10/05 02:47:48;;;;;;;2.10;0.40;;;23.70;33.20;;;;;;5035673;28;20280;-89
2023/10/05 02:50:20;;;;;;;2.10;0.45;;;23.70;32.40;;;;;;5022192;28;20240;-89
2023/10/05 02:52:51;;;;;;;2.10;0.70;;;23.60;32.40;;;;;;5020361;28;20194;-87
2023/10/05 02:55:23;;;;;;;3.65;0.63;;;23.60;32.90;;;;;;5033514;28;20198;-87
2023/10/05 02:57:57;;;;;;;0.90;0.45;;;23.40;32.30;;;;;;5034747;28;20197;-88
2023/10/05 03:00:27;;;;;;;1.30;0.55;;;23.30;33.20;;;;;;5034936;28;20197;-88
2023/10/05 03:03:02;;;;;;;3.60;0.40;;;23.40;32.30;;;;;;5035762;28;20320;-87
2023/10/05 03:05:35;;;;;;;1.73;0.43;;;23.60;30.90;;;;;;5034541;28;20208;-87
2023/10/05 03:08:08;;;;;;;1.25;0.40;;;23.40;32.20;;;;;;5035312;28;20687;-88
2023/10/05 03:10:43;;;;;;;1.67;0.50;;;23.50;30.90;;;;;;5041514;28;20212;-87
2023/10/05 03:13:18;;;;;;;2.30;0.60;;;23.60;29.90;;;;;;5028483;28;20304;-86
2023/10/05 03:15:54;;;;;;;1.98;0.65;;;23.70;30.40;;;;;;5035287;28;20284;-87
2023/10/05 03:18:25;;;;;;;2.65;0.70;;;23.40;30.20;;;;;;5035323;28;20579;-86
2023/10/05 03:20:58;;;;;;;2.22;0.60;;;23.60;30.00;;;;;;5034701;28;20209;-88
2023/10/05 03:23:28;;;;;;;1.35;0.40;;;23.70;30.00;;;;;;5027832;28;20205;-87
2023/10/05 03:25:59;;;;;;;2.33;0.40;;;23.70;29.90;;;;;;5014856;28;20193;-88
2023/10/05 03:28:35;;;;;;;0.50;0.28;;;23.80;29.80;;;;;;5024545;28;20192;-88
2023/10/05 03:31:08;;;;;;;1.02;0.57;;;24.00;29.90;;;;;;5022217;28;20635;-87
2023/10/05 03:33:39;;;;;;;0.47;0.40;;;24.00;29.10;;;;;;5033055;28;21513;-88
2023/10/05 03:36:15;;;;;;;0.77;0.32;;;23.90;27.80;;;;;;5039400;28;20201;-86
2023/10/05 03:38:55;;;;;;;1.95;0.50;;;23.90;28.50;;;;;;5039002;28;20259;-88
2023/10/05 03:41:28;;;;;;;1.55;0.40;;;23.80;29.80;;;;;;5040642;28;20200;-87
2023/10/05 03:44:01;;;;;;;2.50;0.30;;;23.60;30.70;;;;;;5033085;28;20205;-88
2023/10/05 03:46:32;;;;;;;0.88;0.40;;;23.80;30.90;;;;;;5033538;28;20201;-87
2023/10/05 03:49:06;;;;;;;1.02;0.43;;;23.90;30.70;;;;;;5023281;28;20255;-88
2023/10/05 03:51:37;;;;;;;1.20;0.70;;;23.70;31.40;;;;;;5021375;28;20221;-88
2023/10/05 03:54:08;;;;;;;0.95;0.50;;;23.40;31.30;;;;;;5025549;28;20197;-88
2023/10/05 03:56:42;;;;;;;0.90;0.70;;;23.60;31.60;;;;;;5030147;28;20193;-87
2023/10/05 03:59:16;;;;;;;2.08;0.40;;;23.60;30.00;;;;;;5021270;28;20198;-89
2023/10/05 04:01:48;;;;;;;0.57;0.20;;;23.70;30.00;;;;;;5014829;28;20204;-87
2023/10/05 04:04:22;;;;;;;0.73;0.35;;;23.70;30.20;;;;;;5013549;28;20214;-87
2023/10/05 04:06:54;;;;;;;0.60;0.40;;;23.90;31.20;;;;;;5027169;28;20213;-87
2023/10/05 04:09:28;;;;;;;0.98;0.40;;;24.00;30.70;;;;;;5020030;28;20629;-87
2023/10/05 04:12:00;;;;;;;2.25;0.38;;;24.00;30.90;;;;;;5039691;28;20228;-89
2023/10/05 04:14:34;;;;;;;0.95;0.32;;;24.10;30.80;;;;;;5033652;28;20268;-89
2023/10/05 04:17:07;;;;;;;0.82;0.35;;;24.20;29.50;;;;;;5028151;28;20206;-89
2023/10/05 04:19:41;;;;;;;0.82;0.45;;;24.00;30.20;;;;;;5021716;28;20660;-88
2023/10/05 04:22:14;;;;;;;1.55;0.32;;;24.00;29.70;;;;;;5033522;28;20205;-89
2023/10/05 04:24:45;;;;;;;1.27;0.47;;;23.80;29.60;;;;;;5034529;28;20205;-90
2023/10/05 04:27:18;;;;;;;2.05;0.50;;;23.50;30.50;;;;;;5030260;28;20224;-90
2023/10/05 04:29:50;;;;;;;1.33;0.50;;;23.40;31.30;;;;;;5033239;28;20296;-88
2023/10/05 04:32:21;;;;;;;1.85;0.47;;;23.30;32.20;;;;;;5014105;28;20277;-89
2023/10/05 04:34:52;;;;;;;1.88;0.57;;;23.50;31.30;;;;;;5025856;28;20568;-89
2023/10/05 04:37:25;;;;;;;1.70;0.40;;;23.50;30.90;;;;;;5024367;28;20535;-88
2023/10/05 04:39:59;;;;;;;2.38;0.40;;;23.50;32.00;;;;;;5029948;28;20216;-89
2023/10/05 04:42:31;;;;;;;0.85;0.40;;;23.20;31.60;;;;;;5043643;28;20257;-88
2023/10/05 04:45:11;;;;;;;1.05;0.43;;;23.10;31.40;;;;;;5045691;28;20201;-89
2023/10/05 04:47:45;;;;;;;0.93;0.22;;;22.90;32.90;;;;;;5034447;28;20189;-90
2023/10/05 04:50:17;;;;;;;0.38;0.20;;;22.90;33.20;;;;;;5033583;28;20215;-88
2023/10/05 04:52:50;;;;;;;1.20;0.38;;;22.90;32.80;;;;;;5034633;28;20193;-89
2023/10/05 04:55:31;;;;;;;0.98;0.43;;;23.10;33.10;;;;;;5035291;28;20197;-88
2023/10/05 05:01:28;;;;;;;2.50;0.60;;;23.50;33.20;;;;;;5109821;27;20887;-89
2023/10/05 05:04:13;;;;;;;1.38;0.40;;;23.70;33.10;;;;;;5091512;28;20712;-89
2023/10/05 05:06:44;;;;;;;1.13;0.40;;;24.00;33.70;;;;;;5104981;28;20190;-88
2023/10/05 05:09:16;;;;;;;1.42;0.50;;;24.10;33.40;;;;;;5109920;28;20191;-89
2023/10/05 05:11:47;;;;;;;2.85;0.40;;;24.00;33.40;;;;;;5100977;28;20203;-88
2023/10/05 05:14:18;;;;;;;0.50;0.30;;;24.10;33.40;;;;;;5104720;28;20222;-90
2023/10/05 05:16:53;;;;;;;5.93;0.40;;;23.80;32.40;;;;;;5105203;28;20199;-88
2023/10/05 05:19:25;;;;;;;2.50;0.50;;;23.50;32.80;;;;;;5098493;28;20209;-88
2023/10/05 05:21:55;;;;;;;1.48;0.30;;;23.90;33.20;;;;;;5094852;28;20559;-88
2023/10/05 05:24:28;;;;;;;1.58;0.50;;;24.40;33.10;;;;;;5091576;28;20195;-87
2023/10/05 05:27:00;;;;;;;1.42;0.40;;;24.40;33.70;;;;;;5090685;28;20200;-87
2023/10/05 05:29:32;;;;;;;3.10;0.52;;;24.20;34.40;;;;;;5090900;28;20191;-88
2023/10/05 05:32:10;;;;;;;0.98;0.30;;;24.30;33.70;;;;;;5108523;28;20195;-88
2023/10/05 05:34:42;;;;;;;0.70;0.40;;;24.20;34.60;;;;;;5096602;28;20278;-87
2023/10/05 05:37:13;;;;;;;4.30;0.63;;;23.80;34.60;;;;;;5102944;28;20195;-87
2023/10/05 05:39:44;;;;;;;2.55;0.50;;;23.80;35.10;;;;;;5109794;28;20229;-86
2023/10/05 05:42:15;;;;;;;2.95;0.50;;;24.00;34.60;;;;;;5102404;28;20206;-87
2023/10/05 05:44:46;;;;;;;1.60;0.50;;;24.60;33.80;;;;;;5107590;28;20199;-87
2023/10/05 05:47:18;;;;;;;1.25;0.43;;;24.70;34.50;;;;;;5128018;27;20258;-87
2023/10/05 05:49:50;;;;;;;1.75;0.60;;;24.70;34.80;;;;;;5124636;27;20212;-86
2023/10/05 05:52:22;;;;;;;0.68;0.30;;;24.70;34.80;;;;;;5113620;28;20198;-86
2023/10/05 05:54:53;;;;;;;0.95;0.35;;;24.90;33.90;;;;;;5122982;28;20250;-89
2023/10/05 05:57:24;;;;;;;3.08;0.50;;;24.90;33.50;;;;;;5098522;28;20203;-86
2023/10/05 05:59:55;;;;;;;1.25;0.40;;;24.30;34.70;;;;;;5091984;28;20594;-89
2023/10/05 06:02:27;;;;;;;6.57;1.25;;;23.60;36.30;;;;;;5094646;28;20223;-88
2023/10/05 06:05:00;;;;;;;0.65;0.38;;;23.70;37.00;;;;;;5110023;28;20249;-87
2023/10/05 06:07:31;;;;;;;1.65;0.50;;;24.10;36.50;;;;;;5099130;28;20275;-88
2023/10/05 06:10:01;;;;;;;2.92;0.70;;;24.40;35.90;;;;;;5091044;28;20560;-88
2023/10/05 06:12:33;;;;;;;2.25;0.95;;;24.90;35.60;;;;;;5089922;28;20188;-88
2023/10/05 06:15:04;;;;;;;1.27;0.60;;;24.70;35.40;;;;;;5094853;28;20191;-88
2023/10/05 06:17:38;;;;;;;2.15;0.70;;;25.30;35.90;;;;;;5080304;28;21148;-87
2023/10/05 06:20:14;;;;;;;0.95;0.40;;;25.50;35.00;;;;;;5085685;28;20218;-88
2023/10/05 06:22:46;;;;;;;2.70;0.80;;;25.70;34.30;;;;;;5097193;28;20218;-87
2023/10/05 06:25:17;;;;;;;1.40;0.55;;;25.50;34.70;;;;;;5095471;28;20202;-87
2023/10/05 06:27:48;;;;;;;1.27;0.60;;;25.20;34.70;;;;;;5079102;28;20293;-90
2023/10/05 06:30:20;;;;;;;2.92;0.60;;;24.90;35.10;;;;;;5085004;28;20196;-86
2023/10/05 06:32:55;;;;;;;1.45;0.45;;;25.10;34.20;;;;;;5076518;28;20196;-87
2023/10/05 06:35:28;;;;;;;0.68;0.40;;;24.40;35.50;;;;;;5079192;28;20191;-87
2023/10/05 06:37:59;;;;;;;2.15;0.60;;;23.70;36.80;;;;;;5074754;28;20317;-87
2023/10/05 06:40:33;;;;;;;2.10;0.50;;;24.10;36.70;;;;;;5074606;28;20266;-87
2023/10/05 06:43:08;;;;;;;1.85;0.50;;;24.40;36.80;;;;;;5081496;28;20200;-90
2023/10/05 06:45:39;;;;;;;2.75;0.45;;;24.80;35.60;;;;;;5098884;28;20199;-86
2023/10/05 06:48:14;;;;;;;0.55;0.30;;;24.80;35.20;;;;;;5078889;28;20238;-84
2023/10/05 06:50:46;;;;;;;0.70;0.30;;;24.50;34.70;;;;;;5084504;28;20191;-86
2023/10/05 06:53:17;;;;;;;0.63;0.28;;;24.20;35.80;;;;;;5077938;28;20208;-87
2023/10/05 06:55:48;;;;;;;1.48;0.38;;;23.50;36.60;;;;;;5078346;28;20562;-86
2023/10/05 06:58:19;;;;;;;1.50;0.60;;;23.70;37.00;;;;;;5091560;28;20241;-86
2023/10/05 07:00:50;;;;;;;1.85;0.70;;;23.90;36.00;;;;;;5081569;28;20254;-86
2023/10/05 07:03:23;;;;;;;0.80;0.47;;;23.80;36.10;;;;;;5073810;28;20203;-85
2023/10/05 07:05:54;;;;;;;3.10;0.60;;;23.60;37.10;;;;;;5073504;28;20191;-86
2023/10/05 07:08:24;;;;;;;1.33;0.47;;;23.80;36.90;;;;;;5074888;28;20671;-85
2023/10/05 07:10:56;;;;;;;1.83;0.50;;;23.90;36.20;;;;;;5085387;28;20201;-86
2023/10/05 07:13:28;;;;;;;1.80;0.60;;;23.70;36.80;;;;;;5107556;28;20207;-85
2023/10/05 07:16:02;;;;;;;2.10;0.90;;;23.60;36.60;;;;;;5104908;28;20203;-85
2023/10/05 07:18:35;;;;;;;1.38;0.65;;;23.50;36.80;;;;;;5097501;28;20343;-84
2023/10/05 07:21:08;;;;;;;1.33;0.60;;;23.30;37.80;;;;;;5095078;28;20223;-85
2023/10/05 07:23:39;;;;;;;1.08;0.50;;;23.10;37.80;;;;;;5089244;28;20187;-87
2023/10/05 07:26:11;;;;;;;2.75;0.63;;;22.90;38.00;;;;;;5096670;28;20256;-86
2023/10/05 07:28:42;;;;;;;1.48;0.60;;;22.60;39.00;;;;;;5092173;28;20214;-86
2023/10/05 07:31:13;;;;;;;2.25;0.68;;;22.10;40.00;;;;;;5094986;28;20199;-87
2023/10/05 07:33:46;;;;;;;1.20;0.70;;;21.60;40.40;;;;;;5077707;28;20192;-86
2023/10/05 07:36:18;;;;;;;1.35;0.80;;;21.40;41.10;;;;;;5086487;28;20195;-85
2023/10/05 07:38:57;;;;;;;1.65;0.85;;;21.30;41.20;;;;;;5086706;28;20201;-86
2023/10/05 07:41:29;;;;;;;5.57;1.70;;;21.00;41.50;;;;;;5075679;28;20230;-86
2023/10/05 07:43:59;;;;;;;2.72;1.45;;;20.90;42.10;;;;;;5076384;28;20218;-87
2023/10/05 07:46:30;;;;;;;1.13;0.80;;;20.70;42.60;;;;;;5090103;28;20668;-87
2023/10/05 07:49:03;;;;;;;1.20;0.70;;;20.80;43.10;;;;;;5099080;28;20326;-86
2023/10/05 07:51:34;;;;;;;1.60;0.95;;;20.70;43.40;;;;;;5095587;28;20254;-85
2023/10/05 07:54:07;;;;;;;3.28;1.13;;;20.60;43.70;;;;;;5109257;28;20187;-88
2023/10/05 07:56:39;;;;;;;1.55;0.90;;;20.50;43.90;;;;;;5082990;28;20204;-87
2023/10/05 07:59:13;;;;;;;1.83;0.85;;;20.40;44.50;;;;;;5088665;28;20722;-87
2023/10/05 08:01:45;;;;;;;2.33;0.65;;;20.30;44.40;;;;;;5096445;28;20226;-87
2023/10/05 08:04:18;;;;;;;1.30;0.77;;;20.00;45.00;;;;;;5077881;28;20204;-88
2023/10/05 08:06:49;;;;;;;1.58;1.40;;;20.10;45.30;;;;;;5072744;28;20283;-85
2023/10/05 08:09:20;;;;;;;0.90;0.60;;;19.90;45.80;;;;;;5073464;28;20196;-86
2023/10/05 08:11:53;;;;;;;0.77;0.57;;;19.90;46.10;;;;;;5083459;28;20236;-86
2023/10/05 08:14:24;;;;;;;2.55;0.73;;;19.90;46.40;;;;;;5075389;28;20671;-86
2023/10/05 08:16:57;;;;;;;1.75;0.85;;;19.90;46.90;;;;;;5089748;28;20274;-87
2023/10/05 08:19:30;;;;;;;1.55;0.90;;;19.80;46.90;;;;;;5086805;28;20689;-86
2023/10/05 08:22:02;;;;;;;2.40;1.00;;;19.90;47.30;;;;;;5084384;28;20191;-86
2023/10/05 08:24:33;;;;;;;1.65;1.00;;;19.90;47.30;;;;;;5086546;28;20221;-88
2023/10/05 08:27:04;;;;;;;1.60;0.90;;;19.60;47.80;;;;;;5076942;28;20195;-88
2023/10/05 08:29:39;;;;;;;3.97;1.38;;;19.60;48.30;;;;;;5082313;28;20557;-88
2023/10/05 08:32:13;;;;;;;1.67;0.90;;;19.50;48.80;;;;;;5092006;28;20268;-86
2023/10/05 08:34:49;;;;;;;2.88;1.00;;;19.50;49.20;;;;;;5088743;28;20286;-87
2023/10/05 08:37:22;;;;;;;3.17;1.02;;;19.30;50.00;;;;;;5092290;28;20231;-87
2023/10/05 08:39:53;;;;;;;2.92;1.10;;;19.30;50.60;;;;;;5083184;28;20200;-87
2023/10/05 08:42:26;;;;;;;3.38;1.48;;;19.40;50.90;;;;;;5085851;28;20207;-86
2023/10/05 08:44:57;;;;;;;3.00;1.10;;;19.30;51.00;;;;;;5076048;28;20187;-85
2023/10/05 08:47:28;;;;;;;1.90;1.17;;;19.30;51.20;;;;;;5084116;28;20187;-87
2023/10/05 08:50:02;;;;;;;4.65;1.67;;;19.20;51.40;;;;;;5092103;28;20192;-86
2023/10/05 08:52:39;;;;;;;3.05;1.33;;;19.20;51.80;;;;;;5084885;28;20195;-86
2023/10/05 08:55:14;;;;;;;2.13;1.40;;;19.30;52.00;;;;;;5086916;28;20191;-85
2023/10/05 08:57:52;;;;;;;4.53;2.08;;;19.30;52.20;;;;;;5088509;28;20179;-86
2023/10/05 09:00:38;;;;;;;3.53;1.10;;;19.30;52.30;;;;;;5086689;28;20238;-86
2023/10/05 09:03:28;;;;;;;2.20;1.10;;;19.20;52.60;;;;;;5076831;28;20214;-85
2023/10/05 09:06:20;;;;;;;3.33;1.17;;;19.20;52.70;;;;;;5075675;28;20192;-86
2023/10/05 09:09:07;;;;;;;1.92;1.40;;;19.10;53.50;;;;;;5084244;28;20262;-87
2023/10/05 09:11:41;;;;;;;2.35;1.35;;;19.10;53.70;;;;;;5074139;28;20202;-87
2023/10/05 09:14:17;;;;;;;5.63;1.85;;;19.20;54.30;;;;;;5086249;28;20615;-87
2023/10/05 09:16:55;;;;;;;1.63;1.02;;;19.10;53.30;;;;;;5075572;28;20204;-87
2023/10/05 09:19:33;;;;;;;2.72;1.70;;;19.10;53.90;;;;;;5082219;28;20224;-87
2023/10/05 09:22:22;;;;;;;7.28;2.03;;;19.00;53.80;;;;;;5089761;28;20227;-87
2023/10/05 09:24:58;;;;;;;1.00;0.70;;;19.00;54.10;;;;;;5073896;28;20222;-86
2023/10/05 09:27:50;;;;;;;1.65;0.57;;;18.90;53.80;;;;;;5073312;28;20203;-86
2023/10/05 09:30:22;;;;;;;4.07;1.40;;;18.70;54.30;;;;;;5073458;28;20195;-85
2023/10/05 09:33:10;;;;;;;2.17;0.90;;;18.60;55.00;;;;;;5078423;28;20200;-86
2023/10/05 09:35:46;;;;;;;1.55;0.60;;;18.70;55.00;;;;;;5088000;28;20198;-87
2023/10/05 09:38:21;;;;;;;1.50;0.77;;;18.80;55.00;;;;;;5095669;28;20195;-88
2023/10/05 09:40:54;;;;;;;2.13;0.98;;;18.80;54.70;;;;;;5094381;28;20268;-87
2023/10/05 09:43:27;;;;;;;3.58;0.75;;;18.60;55.00;;;;;;5087082;28;20192;-86
2023/10/05 09:45:59;;;;;;;1.92;0.90;;;18.70;55.00;;;;;;5077444;28;20195;-86
2023/10/05 09:48:33;;;;;;;0.82;0.70;;;18.70;55.60;;;;;;5097296;28;20207;-86
2023/10/05 09:51:06;;;;;;;1.23;0.50;;;18.50;55.80;;;;;;5096228;28;20199;-86
2023/10/05 09:53:41;;;;;;;1.20;0.73;;;18.50;55.90;;;;;;5097516;28;20191;-88
2023/10/05 09:56:14;;;;;;;3.35;1.00;;;18.20;56.20;;;;;;5097532;28;20282;-87
2023/10/05 09:58:50;;;;;;;1.25;0.60;;;18.10;56.70;;;;;;5089775;28;20656;-87
2023/10/05 10:01:22;;;;;;;1.50;0.68;;;18.10;56.70;;;;;;5088526;28;20309;-85
2023/10/05 10:03:56;;;;;;;1.55;0.50;;;18.30;56.80;;;;;;5106658;28;20213;-86
2023/10/05 10:06:29;;;;;;;2.28;0.90;;;18.30;56.80;;;;;;5097834;28;20202;-86
2023/10/05 10:09:11;;;;;;;3.58;1.10;;;18.30;56.60;;;;;;5093774;28;20192;-86
2023/10/05 10:11:42;;;;;;;1.00;0.60;;;18.20;56.70;;;;;;5077384;28;20192;-86
2023/10/05 10:14:26;;;;;;;4.05;1.52;;;18.20;57.20;;;;;;5078031;28;20195;-85
2023/10/05 10:17:00;;;;;;;1.60;0.90;;;18.30;57.20;;;;;;5104088;28;20227;-84
2023/10/05 10:19:45;;;;;;;1.73;0.80;;;18.30;57.20;;;;;;5103873;28;20668;-85
2023/10/05 10:22:28;;;;;;;2.00;0.60;;;18.40;57.40;;;;;;5083281;28;20597;-85
2023/10/05 10:25:10;;;;;;;0.98;0.70;;;18.40;57.20;;;;;;5093107;28;20200;-84
2023/10/05 10:27:43;;;;;;;1.83;0.68;;;18.30;57.50;;;;;;5105152;28;20191;-86
2023/10/05 10:30:24;;;;;;;2.08;0.82;;;18.30;57.50;;;;;;5101495;28;20198;-86
2023/10/05 10:33:30;;;;;;;1.70;0.57;;;18.30;57.50;;;;;;5101069;28;20192;-82
2023/10/05 10:36:03;;;;;;;2.60;1.52;;;18.20;57.60;;;;;;5101395;28;20187;-84
2023/10/05 10:38:35;;;;;;;1.98;1.10;;;18.20;57.90;;;;;;5102567;28;20218;-84
2023/10/05 10:41:11;;;;;;;1.55;0.77;;;18.10;58.10;;;;;;5100052;28;20210;-84
2023/10/05 10:43:45;;;;;;;2.00;0.82;;;18.00;58.20;;;;;;5083743;28;20196;-83
2023/10/05 10:46:32;;;;;;;1.35;0.75;;;18.00;58.60;;;;;;5084316;28;20200;-84
2023/10/05 10:49:07;;;;;;;1.20;0.60;;;17.90;58.70;;;;;;5084290;28;20298;-84
2023/10/05 10:51:43;;;;;;;2.90;0.93;;;18.00;58.90;;;;;;5083889;28;20224;-82
2023/10/05 10:54:18;;;;;;;1.75;0.75;;;18.10;58.40;;;;;;5102217;28;20244;-83
2023/10/05 10:56:54;;;;;;;0.98;0.80;;;18.10;58.40;;;;;;5101591;28;20246;-84
2023/10/05 10:59:30;;;;;;;1.58;0.75;;;18.00;58.70;;;;;;5089197;28;20690;-86
2023/10/05 11:02:11;;;;;;;2.92;0.63;;;18.10;58.90;;;;;;5091982;28;20252;-82
2023/10/05 11:04:43;;;;;;;3.03;0.80;;;18.00;58.30;;;;;;5086694;28;20643;-85
2023/10/05 11:07:22;;;;;;;2.55;0.60;;;18.00;58.80;;;;;;5094817;28;20196;-86
2023/10/05 11:09:55;;;;;;;1.45;0.63;;;18.00;59.60;;;;;;5104485;28;20241;-86
2023/10/05 11:15:28;;;;;;;0.52;0.40;;;17.90;58.40;;;;;;5085856;28;20259;-83
2023/10/05 11:18:03;;;;;;;1.05;0.50;;;17.90;58.30;;;;;;5077938;28;20229;-82
2023/10/05 11:20:40;;;;;;;2.03;0.40;;;17.80;58.10;;;;;;5077847;28;20554;-84
2023/10/05 11:23:25;;;;;;;1.13;0.50;;;17.70;58.20;;;;;;5094211;28;20191;-85
2023/10/05 11:28:51;;;;;;;1.35;0.60;;;17.70;58.20;;;;;;5103897;28;20195;-85
2023/10/05 11:31:26;;;;;;;0.70;0.52;;;17.70;58.30;;;;;;5104074;28;20199;-84
2023/10/05 11:34:00;;;;;;;1.15;0.40;;;17.60;58.20;;;;;;5080155;28;20221;-83
2023/10/05 11:36:33;;;;;;;0.95;0.40;;;17.60;58.30;;;;;;5079281;28;20270;-84
2023/10/05 11:39:20;;;;;;;2.03;0.82;;;17.50;58.40;;;;;;5092370;28;20192;-83
2023/10/05 11:41:56;;;;;;;0.90;0.50;;;17.40;59.10;;;;;;5082279;28;20255;-85
2023/10/05 11:44:29;;;;;;;1.38;0.52;;;17.40;59.10;;;;;;5097542;28;20198;-83
2023/10/05 11:47:04;;;;;;;2.08;0.70;;;17.40;59.70;;;;;;5079735;28;20268;-82
2023/10/05 11:49:41;;;;;;;2.95;0.68;;;17.40;59.60;;;;;;5079737;28;20294;-84
2023/10/05 11:52:15;;;;;;;2.05;0.55;;;17.40;59.10;;;;;;5082152;28;20211;-84
2023/10/05 11:54:47;;;;;;;0.98;0.60;;;17.30;59.50;;;;;;5085446;28;20187;-86
2023/10/05 11:57:18;;;;;;;2.03;0.63;;;17.40;59.70;;;;;;5101665;28;20191;-84
2023/10/05 11:59:54;;;;;;;1.05;0.40;;;17.40;60.00;;;;;;5097745;28;20598;-84
2023/10/05 12:02:28;;;;;;;3.50;0.55;;;17.50;60.00;;;;;;5090719;28;20211;-83
2023/10/05 12:04:59;;;;;;;1.13;0.40;;;17.50;59.80;;;;;;5097200;28;20287;-83
2023/10/05 12:07:30;;;;;;;0.80;0.35;;;17.40;60.00;;;;;;5094830;28;20196;-85
2023/10/05 12:10:09;;;;;;;0.73;0.30;;;17.40;60.50;;;;;;5091537;28;20191;-84
2023/10/05 12:12:50;;;;;;;1.60;0.40;;;17.30;60.20;;;;;;5090928;28;20243;-85
2023/10/05 12:15:28;;;;;;;0.63;0.30;;;17.30;60.30;;;;;;5088771;28;20718;-84
2023/10/05 12:18:07;;;;;;;0.98;0.40;;;17.30;61.10;;;;;;5100965;28;20278;-84
2023/10/05 12:20:41;;;;;;;0.95;0.32;;;17.40;60.90;;;;;;5097692;28;20195;-85
2023/10/05 12:23:14;;;;;;;0.95;0.40;;;17.30;61.50;;;;;;5090764;28;20654;-83
2023/10/05 12:25:53;;;;;;;1.17;0.47;;;17.30;61.50;;;;;;5085023;28;20188;-82
2023/10/05 12:28:28;;;;;;;1.10;0.40;;;17.30;61.10;;;;;;5084016;28;20184;-82
2023/10/05 12:31:12;;;;;;;0.77;0.43;;;17.30;61.20;;;;;;5081270;28;20562;-83
2023/10/05 12:33:50;;;;;;;1.15;0.55;;;17.20;61.50;;;;;;5078819;28;20286;-84
2023/10/05 12:36:22;;;;;;;2.25;0.40;;;17.20;61.40;;;;;;5074967;28;20214;-85
2023/10/05 12:38:55;;;;;;;1.52;0.50;;;17.20;61.10;;;;;;5079146;28;20197;-85
2023/10/05 12:41:36;;;;;;;3.20;0.50;;;17.10;61.50;;;;;;5100694;28;20215;-84
2023/10/05 12:44:09;;;;;;;3.17;0.60;;;17.10;61.80;;;;;;5105195;28;20223;-83
2023/10/05 12:46:45;;;;;;;1.50;0.63;;;17.00;62.30;;;;;;5102532;28;20601;-83
2023/10/05 12:49:20;;;;;;;0.63;0.50;;;17.10;62.30;;;;;;5090199;28;20195;-85
2023/10/05 12:51:52;;;;;;;1.33;0.60;;;17.10;62.00;;;;;;5094925;28;20203;-84
2023/10/05 12:54:28;;;;;;;0.70;0.55;;;17.10;61.90;;;;;;5090738;28;20572;-84
2023/10/05 12:57:10;;;;;;;3.65;0.70;;;17.10;62.60;;;;;;5092553;28;20626;-83
2023/10/05 12:59:42;;;;;;;1.27;0.47;;;17.20;62.20;;;;;;5096191;28;20336;-82
2023/10/05 13:02:19;;;;;;;1.75;0.55;;;17.10;62.00;;;;;;5083753;28;20317;-84
2023/10/05 13:04:51;;;;;;;0.85;0.50;;;17.10;62.70;;;;;;5076922;28;20261;-84
2023/10/05 13:07:26;;;;;;;2.42;0.55;;;17.10;62.00;;;;;;5083520;28;20260;-83
2023/10/05 13:10:08;;;;;;;2.00;0.40;;;17.10;61.90;;;;;;5080560;28;20290;-83
2023/10/05 13:12:45;;;;;;;1.65;0.52;;;17.10;61.80;;;;;;5094276;28;20301;-83
2023/10/05 13:15:24;;;;;;;1.20;0.50;;;17.10;62.00;;;;;;5096776;28;20202;-84
2023/10/05 13:20:54;;;;;;;2.13;0.68;;;17.00;62.40;;;;;;5080589;28;20198;-84
2023/10/05 13:23:33;;;;;;;0.25;0.20;;;17.00;62.20;;;;;;5080835;28;20247;-85
2023/10/05 13:26:07;;;;;;;0.98;0.40;;;17.00;63.00;;;;;;5095230;28;20199;-85
2023/10/05 13:28:38;;;;;;;3.15;0.70;;;17.00;63.50;;;;;;5097548;28;20214;-84
2023/10/05 13:31:12;;;;;;;0.57;0.47;;;17.10;63.80;;;;;;5088748;28;20848;-83
2023/10/05 13:33:48;;;;;;;1.60;0.55;;;17.00;63.10;;;;;;5096460;28;20195;-84
2023/10/05 13:36:21;;;;;;;0.55;0.43;;;17.00;63.50;;;;;;5094530;28;20192;-84